sensor_id;sensor_type;location;lat;lon;timestamp;P1;durP1;ratioP1;P2;durP2;ratioP2
1509;SDS011;746;48.688;9.428;2023-03-17T00:01:02;7.77;;;6.97;;
1509;SDS011;746;48.688;9.428;2023-03-17T00:03:25;7.57;;;6.70;;
1509;SDS011;746;48.688;9.428;2023-03-17T00:05:48;7.60;;;6.83;;
1509;SDS011;746;48.688;9.428;2023-03-17T00:08:11;8.20;;;7.40;;
1509;SDS011;746;48.688;9.428;2023-03-17T00:10:33;7.93;;;7.13;;
1509;SDS011;746;48.688;9.428;2023-03-17T00:12:56;7.73;;;6.87;;
1509;SDS011;746;48.688;9.428;2023-03-17T00:15:18;8.17;;;7.37;;
1509;SDS011;746;48.688;9.428;2023-03-17T00:17:40;7.43;;;6.73;;
1509;SDS011;746;48.688;9.428;2023-03-17T00:20:02;8.40;;;7.60;;
1509;SDS011;746;48.688;9.428;2023-03-17T00:22:25;7.33;;;6.63;;
1509;SDS011;746;48.688;9.428;2023-03-17T00:24:46;7.60;;;6.87;;
1509;SDS011;746;48.688;9.428;2023-03-17T00:27:09;7.90;;;7.03;;
1509;SDS011;746;48.688;9.428;2023-03-17T00:29:32;7.70;;;7.00;;
1509;SDS011;746;48.688;9.428;2023-03-17T00:31:55;7.90;;;7.00;;
1509;SDS011;746;48.688;9.428;2023-03-17T00:34:17;7.90;;;7.13;;
1509;SDS011;746;48.688;9.428;2023-03-17T00:36:38;7.77;;;7.00;;
1509;SDS011;746;48.688;9.428;2023-03-17T00:39:02;7.83;;;7.10;;
1509;SDS011;746;48.688;9.428;2023-03-17T00:41:23;7.87;;;7.17;;
1509;SDS011;746;48.688;9.428;2023-03-17T00:43:44;7.97;;;7.20;;
1509;SDS011;746;48.688;9.428;2023-03-17T00:46:09;7.70;;;6.90;;
1509;SDS011;746;48.688;9.428;2023-03-17T00:48:31;8.47;;;7.37;;
1509;SDS011;746;48.688;9.428;2023-03-17T00:50:53;8.53;;;6.93;;
1509;SDS011;746;48.688;9.428;2023-03-17T00:53:15;8.00;;;7.20;;
1509;SDS011;746;48.688;9.428;2023-03-17T00:55:37;8.30;;;7.53;;
1509;SDS011;746;48.688;9.428;2023-03-17T00:57:59;8.70;;;7.90;;
1509;SDS011;746;48.688;9.428;2023-03-17T01:00:22;8.53;;;7.70;;
1509;SDS011;746;48.688;9.428;2023-03-17T01:02:46;8.00;;;7.13;;
1509;SDS011;746;48.688;9.428;2023-03-17T01:05:07;7.90;;;7.10;;
1509;SDS011;746;48.688;9.428;2023-03-17T01:07:29;7.57;;;6.87;;
1509;SDS011;746;48.688;9.428;2023-03-17T01:09:51;7.43;;;6.73;;
1509;SDS011;746;48.688;9.428;2023-03-17T01:12:12;8.13;;;6.90;;
1509;SDS011;746;48.688;9.428;2023-03-17T01:14:35;8.23;;;7.43;;
1509;SDS011;746;48.688;9.428;2023-03-17T01:16:57;7.67;;;6.67;;
1509;SDS011;746;48.688;9.428;2023-03-17T01:19:21;7.97;;;7.17;;
1509;SDS011;746;48.688;9.428;2023-03-17T01:21:42;8.07;;;7.10;;
1509;SDS011;746;48.688;9.428;2023-03-17T01:24:04;8.30;;;6.70;;
1509;SDS011;746;48.688;9.428;2023-03-17T01:26:27;9.40;;;7.50;;
1509;SDS011;746;48.688;9.428;2023-03-17T01:28:48;7.40;;;6.80;;
1509;SDS011;746;48.688;9.428;2023-03-17T01:31:09;9.90;;;7.00;;
1509;SDS011;746;48.688;9.428;2023-03-17T01:33:31;7.90;;;7.10;;
1509;SDS011;746;48.688;9.428;2023-03-17T01:35:54;7.13;;;6.43;;
1509;SDS011;746;48.688;9.428;2023-03-17T01:38:16;8.20;;;7.40;;
1509;SDS011;746;48.688;9.428;2023-03-17T01:40:41;7.73;;;7.07;;
1509;SDS011;746;48.688;9.428;2023-03-17T01:43:03;7.43;;;6.73;;
1509;SDS011;746;48.688;9.428;2023-03-17T01:48:16;7.77;;;6.73;;
1509;SDS011;746;48.688;9.428;2023-03-17T01:50:38;7.90;;;7.10;;
1509;SDS011;746;48.688;9.428;2023-03-17T01:53:01;8.10;;;7.30;;
1509;SDS011;746;48.688;9.428;2023-03-17T01:55:23;7.83;;;7.03;;
1509;SDS011;746;48.688;9.428;2023-03-17T01:57:45;7.73;;;6.97;;
1509;SDS011;746;48.688;9.428;2023-03-17T02:00:11;7.87;;;6.93;;
1509;SDS011;746;48.688;9.428;2023-03-17T02:02:33;7.30;;;6.60;;
1509;SDS011;746;48.688;9.428;2023-03-17T02:04:55;8.60;;;6.97;;
1509;SDS011;746;48.688;9.428;2023-03-17T02:07:17;7.40;;;6.70;;
1509;SDS011;746;48.688;9.428;2023-03-17T02:09:41;7.53;;;6.83;;
1509;SDS011;746;48.688;9.428;2023-03-17T02:12:03;7.30;;;6.60;;
1509;SDS011;746;48.688;9.428;2023-03-17T02:14:25;7.73;;;7.00;;
1509;SDS011;746;48.688;9.428;2023-03-17T02:16:47;7.57;;;6.87;;
1509;SDS011;746;48.688;9.428;2023-03-17T02:19:10;7.77;;;6.67;;
1509;SDS011;746;48.688;9.428;2023-03-17T02:21:40;7.30;;;6.70;;
1509;SDS011;746;48.688;9.428;2023-03-17T02:24:02;7.37;;;6.67;;
1509;SDS011;746;48.688;9.428;2023-03-17T02:26:26;7.60;;;6.90;;
1509;SDS011;746;48.688;9.428;2023-03-17T02:28:49;7.83;;;7.13;;
1509;SDS011;746;48.688;9.428;2023-03-17T02:31:11;7.97;;;7.17;;
1509;SDS011;746;48.688;9.428;2023-03-17T02:33:32;7.43;;;6.77;;
1509;SDS011;746;48.688;9.428;2023-03-17T02:35:54;7.70;;;6.73;;
1509;SDS011;746;48.688;9.428;2023-03-17T02:38:17;7.60;;;6.97;;
1509;SDS011;746;48.688;9.428;2023-03-17T02:40:39;7.40;;;6.80;;
1509;SDS011;746;48.688;9.428;2023-03-17T02:43:00;7.50;;;6.80;;
1509;SDS011;746;48.688;9.428;2023-03-17T02:45:24;7.40;;;6.77;;
1509;SDS011;746;48.688;9.428;2023-03-17T02:47:46;7.50;;;6.80;;
1509;SDS011;746;48.688;9.428;2023-03-17T02:50:10;8.10;;;7.07;;
1509;SDS011;746;48.688;9.428;2023-03-17T02:52:34;7.77;;;7.07;;
1509;SDS011;746;48.688;9.428;2023-03-17T02:54:58;8.30;;;7.40;;
1509;SDS011;746;48.688;9.428;2023-03-17T02:57:19;8.73;;;7.70;;
1509;SDS011;746;48.688;9.428;2023-03-17T02:59:41;7.77;;;7.07;;
1509;SDS011;746;48.688;9.428;2023-03-17T03:02:02;7.67;;;6.97;;
1509;SDS011;746;48.688;9.428;2023-03-17T03:04:25;7.83;;;6.90;;
1509;SDS011;746;48.688;9.428;2023-03-17T03:06:46;7.90;;;7.20;;
1509;SDS011;746;48.688;9.428;2023-03-17T03:09:07;7.50;;;6.80;;
1509;SDS011;746;48.688;9.428;2023-03-17T03:11:32;7.27;;;6.50;;
1509;SDS011;746;48.688;9.428;2023-03-17T03:13:53;8.57;;;7.53;;
1509;SDS011;746;48.688;9.428;2023-03-17T03:16:14;7.53;;;6.83;;
1509;SDS011;746;48.688;9.428;2023-03-17T03:18:36;9.47;;;7.30;;
1509;SDS011;746;48.688;9.428;2023-03-17T03:20:57;8.80;;;7.90;;
1509;SDS011;746;48.688;9.428;2023-03-17T03:23:19;8.30;;;7.47;;
1509;SDS011;746;48.688;9.428;2023-03-17T03:25:40;7.90;;;7.20;;
1509;SDS011;746;48.688;9.428;2023-03-17T03:28:03;8.00;;;7.30;;
1509;SDS011;746;48.688;9.428;2023-03-17T03:30:25;7.93;;;7.13;;
1509;SDS011;746;48.688;9.428;2023-03-17T03:32:46;8.27;;;7.37;;
1509;SDS011;746;48.688;9.428;2023-03-17T03:35:08;7.73;;;7.07;;
1509;SDS011;746;48.688;9.428;2023-03-17T03:37:30;9.13;;;8.33;;
1509;SDS011;746;48.688;9.428;2023-03-17T03:39:53;9.40;;;8.40;;
1509;SDS011;746;48.688;9.428;2023-03-17T03:42:15;9.47;;;8.47;;
1509;SDS011;746;48.688;9.428;2023-03-17T03:44:38;9.40;;;8.50;;
1509;SDS011;746;48.688;9.428;2023-03-17T03:46:59;10.67;;;8.23;;
1509;SDS011;746;48.688;9.428;2023-03-17T03:49:22;9.20;;;8.13;;
1509;SDS011;746;48.688;9.428;2023-03-17T03:51:43;9.07;;;8.17;;
1509;SDS011;746;48.688;9.428;2023-03-17T03:54:04;9.17;;;8.33;;
1509;SDS011;746;48.688;9.428;2023-03-17T03:56:26;10.40;;;9.13;;
1509;SDS011;746;48.688;9.428;2023-03-17T03:58:47;10.57;;;8.33;;
1509;SDS011;746;48.688;9.428;2023-03-17T04:01:10;8.83;;;7.93;;
1509;SDS011;746;48.688;9.428;2023-03-17T04:03:31;8.97;;;8.10;;
1509;SDS011;746;48.688;9.428;2023-03-17T04:05:53;9.47;;;8.47;;
1509;SDS011;746;48.688;9.428;2023-03-17T04:08:14;10.13;;;8.90;;
1509;SDS011;746;48.688;9.428;2023-03-17T04:10:36;9.83;;;8.40;;
1509;SDS011;746;48.688;9.428;2023-03-17T04:12:57;9.63;;;8.37;;
1509;SDS011;746;48.688;9.428;2023-03-17T04:15:19;9.27;;;8.10;;
1509;SDS011;746;48.688;9.428;2023-03-17T04:17:42;9.50;;;8.53;;
1509;SDS011;746;48.688;9.428;2023-03-17T04:20:05;11.37;;;8.07;;
1509;SDS011;746;48.688;9.428;2023-03-17T04:22:26;9.80;;;8.40;;
1509;SDS011;746;48.688;9.428;2023-03-17T04:24:47;9.43;;;8.50;;
1509;SDS011;746;48.688;9.428;2023-03-17T04:27:09;10.13;;;8.47;;
1509;SDS011;746;48.688;9.428;2023-03-17T04:29:30;9.90;;;8.87;;
1509;SDS011;746;48.688;9.428;2023-03-17T04:31:52;10.37;;;8.97;;
1509;SDS011;746;48.688;9.428;2023-03-17T04:34:16;9.50;;;8.60;;
1509;SDS011;746;48.688;9.428;2023-03-17T04:36:38;9.83;;;8.87;;
1509;SDS011;746;48.688;9.428;2023-03-17T04:38:59;9.70;;;8.60;;
1509;SDS011;746;48.688;9.428;2023-03-17T04:41:23;9.20;;;8.30;;
1509;SDS011;746;48.688;9.428;2023-03-17T04:43:44;11.50;;;9.20;;
1509;SDS011;746;48.688;9.428;2023-03-17T04:46:08;9.07;;;8.23;;
1509;SDS011;746;48.688;9.428;2023-03-17T04:48:30;8.97;;;8.07;;
1509;SDS011;746;48.688;9.428;2023-03-17T04:50:53;9.73;;;8.73;;
1509;SDS011;746;48.688;9.428;2023-03-17T04:53:14;9.37;;;8.23;;
1509;SDS011;746;48.688;9.428;2023-03-17T04:55:36;11.43;;;9.40;;
1509;SDS011;746;48.688;9.428;2023-03-17T04:57:57;9.77;;;7.97;;
1509;SDS011;746;48.688;9.428;2023-03-17T05:00:19;9.50;;;8.37;;
1509;SDS011;746;48.688;9.428;2023-03-17T05:02:41;10.73;;;8.93;;
1509;SDS011;746;48.688;9.428;2023-03-17T05:05:03;9.93;;;8.93;;
1509;SDS011;746;48.688;9.428;2023-03-17T05:07:26;9.70;;;8.77;;
1509;SDS011;746;48.688;9.428;2023-03-17T05:09:47;10.23;;;9.13;;
1509;SDS011;746;48.688;9.428;2023-03-17T05:12:09;10.47;;;9.30;;
1509;SDS011;746;48.688;9.428;2023-03-17T05:14:31;11.17;;;8.70;;
1509;SDS011;746;48.688;9.428;2023-03-17T05:16:52;9.60;;;8.70;;
1509;SDS011;746;48.688;9.428;2023-03-17T05:19:14;10.20;;;9.30;;
1509;SDS011;746;48.688;9.428;2023-03-17T05:21:36;9.23;;;8.43;;
1509;SDS011;746;48.688;9.428;2023-03-17T05:23:58;9.87;;;8.87;;
1509;SDS011;746;48.688;9.428;2023-03-17T05:26:20;11.07;;;8.43;;
1509;SDS011;746;48.688;9.428;2023-03-17T05:28:43;10.43;;;8.57;;
1509;SDS011;746;48.688;9.428;2023-03-17T05:31:04;10.37;;;8.97;;
1509;SDS011;746;48.688;9.428;2023-03-17T05:33:29;10.23;;;9.17;;
1509;SDS011;746;48.688;9.428;2023-03-17T05:35:51;9.50;;;8.47;;
1509;SDS011;746;48.688;9.428;2023-03-17T05:38:12;9.47;;;8.37;;
1509;SDS011;746;48.688;9.428;2023-03-17T05:40:35;9.30;;;8.33;;
1509;SDS011;746;48.688;9.428;2023-03-17T05:42:57;10.03;;;9.03;;
1509;SDS011;746;48.688;9.428;2023-03-17T05:45:18;11.00;;;8.73;;
1509;SDS011;746;48.688;9.428;2023-03-17T05:47:40;11.20;;;9.27;;
1509;SDS011;746;48.688;9.428;2023-03-17T05:50:02;9.80;;;8.80;;
1509;SDS011;746;48.688;9.428;2023-03-17T05:52:23;9.70;;;8.80;;
1509;SDS011;746;48.688;9.428;2023-03-17T05:54:45;11.17;;;9.10;;
1509;SDS011;746;48.688;9.428;2023-03-17T05:57:09;11.80;;;8.97;;
1509;SDS011;746;48.688;9.428;2023-03-17T05:59:31;10.20;;;9.17;;
1509;SDS011;746;48.688;9.428;2023-03-17T06:01:52;11.10;;;9.47;;
1509;SDS011;746;48.688;9.428;2023-03-17T06:04:14;10.20;;;9.17;;
1509;SDS011;746;48.688;9.428;2023-03-17T06:06:36;9.97;;;9.00;;
1509;SDS011;746;48.688;9.428;2023-03-17T06:08:58;10.00;;;9.10;;
1509;SDS011;746;48.688;9.428;2023-03-17T06:11:20;10.17;;;9.07;;
1509;SDS011;746;48.688;9.428;2023-03-17T06:13:42;9.57;;;8.57;;
1509;SDS011;746;48.688;9.428;2023-03-17T06:16:04;9.27;;;8.37;;
1509;SDS011;746;48.688;9.428;2023-03-17T06:18:26;9.27;;;8.33;;
1509;SDS011;746;48.688;9.428;2023-03-17T06:20:47;9.90;;;8.90;;
1509;SDS011;746;48.688;9.428;2023-03-17T06:23:08;9.23;;;8.23;;
1509;SDS011;746;48.688;9.428;2023-03-17T06:25:30;10.27;;;9.27;;
1509;SDS011;746;48.688;9.428;2023-03-17T06:27:52;9.80;;;8.80;;
1509;SDS011;746;48.688;9.428;2023-03-17T06:30:16;10.07;;;8.97;;
1509;SDS011;746;48.688;9.428;2023-03-17T06:32:38;10.07;;;8.97;;
1509;SDS011;746;48.688;9.428;2023-03-17T06:34:59;10.20;;;9.20;;
1509;SDS011;746;48.688;9.428;2023-03-17T06:37:20;10.33;;;8.97;;
1509;SDS011;746;48.688;9.428;2023-03-17T06:39:41;13.13;;;11.73;;
1509;SDS011;746;48.688;9.428;2023-03-17T06:42:04;13.40;;;11.87;;
1509;SDS011;746;48.688;9.428;2023-03-17T06:44:25;16.23;;;13.50;;
1509;SDS011;746;48.688;9.428;2023-03-17T06:46:47;14.37;;;12.80;;
1509;SDS011;746;48.688;9.428;2023-03-17T06:49:09;13.57;;;12.03;;
1509;SDS011;746;48.688;9.428;2023-03-17T06:51:32;14.97;;;13.30;;
1509;SDS011;746;48.688;9.428;2023-03-17T06:53:55;14.90;;;11.83;;
1509;SDS011;746;48.688;9.428;2023-03-17T06:56:16;12.57;;;11.27;;
1509;SDS011;746;48.688;9.428;2023-03-17T06:58:48;11.70;;;10.50;;
1509;SDS011;746;48.688;9.428;2023-03-17T07:01:10;11.60;;;10.40;;
1509;SDS011;746;48.688;9.428;2023-03-17T07:03:34;10.60;;;9.60;;
1509;SDS011;746;48.688;9.428;2023-03-17T07:05:57;10.27;;;9.27;;
1509;SDS011;746;48.688;9.428;2023-03-17T07:08:18;10.57;;;9.47;;
1509;SDS011;746;48.688;9.428;2023-03-17T07:10:41;10.50;;;9.20;;
1509;SDS011;746;48.688;9.428;2023-03-17T07:13:02;13.50;;;9.77;;
1509;SDS011;746;48.688;9.428;2023-03-17T07:15:26;13.93;;;12.43;;
1509;SDS011;746;48.688;9.428;2023-03-17T07:17:48;11.17;;;10.07;;
1509;SDS011;746;48.688;9.428;2023-03-17T07:20:11;9.83;;;8.80;;
1509;SDS011;746;48.688;9.428;2023-03-17T07:22:33;10.77;;;8.53;;
1509;SDS011;746;48.688;9.428;2023-03-17T07:24:54;11.90;;;8.87;;
1509;SDS011;746;48.688;9.428;2023-03-17T07:27:16;10.23;;;8.87;;
1509;SDS011;746;48.688;9.428;2023-03-17T07:29:41;10.03;;;9.03;;
1509;SDS011;746;48.688;9.428;2023-03-17T07:32:02;9.60;;;8.40;;
1509;SDS011;746;48.688;9.428;2023-03-17T07:34:26;10.17;;;8.73;;
1509;SDS011;746;48.688;9.428;2023-03-17T07:36:49;10.23;;;9.23;;
1509;SDS011;746;48.688;9.428;2023-03-17T07:39:10;10.13;;;9.10;;
1509;SDS011;746;48.688;9.428;2023-03-17T07:41:32;9.60;;;8.70;;
1509;SDS011;746;48.688;9.428;2023-03-17T07:43:54;10.40;;;9.43;;
1509;SDS011;746;48.688;9.428;2023-03-17T07:46:15;10.33;;;9.33;;
1509;SDS011;746;48.688;9.428;2023-03-17T07:48:37;9.23;;;8.33;;
1509;SDS011;746;48.688;9.428;2023-03-17T07:51:01;10.80;;;8.37;;
1509;SDS011;746;48.688;9.428;2023-03-17T07:53:24;9.90;;;8.50;;
1509;SDS011;746;48.688;9.428;2023-03-17T07:55:45;9.17;;;8.23;;
1509;SDS011;746;48.688;9.428;2023-03-17T07:58:06;9.43;;;8.13;;
1509;SDS011;746;48.688;9.428;2023-03-17T08:00:28;10.53;;;8.47;;
1509;SDS011;746;48.688;9.428;2023-03-17T08:02:50;10.33;;;8.30;;
1509;SDS011;746;48.688;9.428;2023-03-17T08:05:27;10.13;;;7.60;;
1509;SDS011;746;48.688;9.428;2023-03-17T08:07:49;9.10;;;8.20;;
1509;SDS011;746;48.688;9.428;2023-03-17T08:10:12;8.83;;;8.03;;
1509;SDS011;746;48.688;9.428;2023-03-17T08:12:34;8.90;;;8.10;;
1509;SDS011;746;48.688;9.428;2023-03-17T08:14:56;9.93;;;7.70;;
1509;SDS011;746;48.688;9.428;2023-03-17T08:17:17;9.13;;;7.97;;
1509;SDS011;746;48.688;9.428;2023-03-17T08:19:40;9.20;;;8.40;;
1509;SDS011;746;48.688;9.428;2023-03-17T08:22:01;9.37;;;8.37;;
1509;SDS011;746;48.688;9.428;2023-03-17T08:24:22;11.50;;;8.27;;
1509;SDS011;746;48.688;9.428;2023-03-17T08:26:47;8.60;;;7.70;;
1509;SDS011;746;48.688;9.428;2023-03-17T08:29:09;9.83;;;8.63;;
1509;SDS011;746;48.688;9.428;2023-03-17T08:31:30;9.17;;;8.27;;
1509;SDS011;746;48.688;9.428;2023-03-17T08:33:53;9.30;;;8.40;;
1509;SDS011;746;48.688;9.428;2023-03-17T08:36:17;8.17;;;7.37;;
1509;SDS011;746;48.688;9.428;2023-03-17T08:38:39;11.40;;;7.20;;
1509;SDS011;746;48.688;9.428;2023-03-17T08:41:01;7.67;;;6.67;;
1509;SDS011;746;48.688;9.428;2023-03-17T08:43:23;7.97;;;6.67;;
1509;SDS011;746;48.688;9.428;2023-03-17T08:45:45;7.30;;;6.60;;
1509;SDS011;746;48.688;9.428;2023-03-17T08:48:06;6.60;;;6.00;;
1509;SDS011;746;48.688;9.428;2023-03-17T08:50:28;7.33;;;6.17;;
1509;SDS011;746;48.688;9.428;2023-03-17T08:52:50;7.50;;;6.70;;
1509;SDS011;746;48.688;9.428;2023-03-17T08:55:11;5.63;;;5.03;;
1509;SDS011;746;48.688;9.428;2023-03-17T08:57:33;5.57;;;5.07;;
1509;SDS011;746;48.688;9.428;2023-03-17T08:59:56;5.50;;;5.00;;
1509;SDS011;746;48.688;9.428;2023-03-17T09:02:17;5.33;;;4.83;;
1509;SDS011;746;48.688;9.428;2023-03-17T09:04:39;5.77;;;4.90;;
1509;SDS011;746;48.688;9.428;2023-03-17T09:07:00;5.30;;;4.80;;
1509;SDS011;746;48.688;9.428;2023-03-17T09:09:23;5.07;;;4.67;;
1509;SDS011;746;48.688;9.428;2023-03-17T09:11:44;5.30;;;4.87;;
1509;SDS011;746;48.688;9.428;2023-03-17T09:14:06;5.10;;;4.70;;
1509;SDS011;746;48.688;9.428;2023-03-17T09:16:29;6.90;;;6.30;;
1509;SDS011;746;48.688;9.428;2023-03-17T09:18:52;6.60;;;5.97;;
1509;SDS011;746;48.688;9.428;2023-03-17T09:21:14;6.17;;;5.67;;
1509;SDS011;746;48.688;9.428;2023-03-17T09:23:36;6.37;;;5.77;;
1509;SDS011;746;48.688;9.428;2023-03-17T09:25:58;6.40;;;5.77;;
1509;SDS011;746;48.688;9.428;2023-03-17T09:28:19;5.60;;;5.10;;
1509;SDS011;746;48.688;9.428;2023-03-17T09:30:41;5.30;;;4.90;;
1509;SDS011;746;48.688;9.428;2023-03-17T09:33:04;5.60;;;4.93;;
1509;SDS011;746;48.688;9.428;2023-03-17T09:35:25;5.50;;;5.00;;
1509;SDS011;746;48.688;9.428;2023-03-17T09:37:48;4.53;;;4.13;;
1509;SDS011;746;48.688;9.428;2023-03-17T09:40:11;4.60;;;4.20;;
1509;SDS011;746;48.688;9.428;2023-03-17T09:42:37;4.80;;;4.37;;
1509;SDS011;746;48.688;9.428;2023-03-17T09:45:05;6.90;;;4.20;;
1509;SDS011;746;48.688;9.428;2023-03-17T09:47:38;4.37;;;4.07;;
1509;SDS011;746;48.688;9.428;2023-03-17T09:50:03;4.77;;;4.37;;
1509;SDS011;746;48.688;9.428;2023-03-17T09:52:29;5.00;;;4.47;;
1509;SDS011;746;48.688;9.428;2023-03-17T09:54:51;4.73;;;4.40;;
1509;SDS011;746;48.688;9.428;2023-03-17T09:57:13;5.13;;;4.53;;
1509;SDS011;746;48.688;9.428;2023-03-17T09:59:37;4.80;;;4.10;;
1509;SDS011;746;48.688;9.428;2023-03-17T10:02:00;4.80;;;4.27;;
1509;SDS011;746;48.688;9.428;2023-03-17T10:04:22;4.43;;;4.03;;
1509;SDS011;746;48.688;9.428;2023-03-17T10:06:45;5.57;;;4.47;;
1509;SDS011;746;48.688;9.428;2023-03-17T10:09:11;4.43;;;4.03;;
1509;SDS011;746;48.688;9.428;2023-03-17T10:11:36;5.30;;;4.90;;
1509;SDS011;746;48.688;9.428;2023-03-17T10:13:59;7.43;;;4.17;;
1509;SDS011;746;48.688;9.428;2023-03-17T10:16:24;5.10;;;3.87;;
1509;SDS011;746;48.688;9.428;2023-03-17T10:18:48;4.93;;;4.47;;
1509;SDS011;746;48.688;9.428;2023-03-17T10:21:12;4.90;;;4.03;;
1509;SDS011;746;48.688;9.428;2023-03-17T10:23:37;5.30;;;4.13;;
1509;SDS011;746;48.688;9.428;2023-03-17T10:25:59;5.00;;;4.33;;
1509;SDS011;746;48.688;9.428;2023-03-17T10:28:23;4.17;;;3.77;;
1509;SDS011;746;48.688;9.428;2023-03-17T10:30:45;4.67;;;4.27;;
1509;SDS011;746;48.688;9.428;2023-03-17T10:33:07;4.70;;;4.30;;
1509;SDS011;746;48.688;9.428;2023-03-17T10:35:28;4.80;;;4.40;;
1509;SDS011;746;48.688;9.428;2023-03-17T10:37:55;4.53;;;4.13;;
1509;SDS011;746;48.688;9.428;2023-03-17T10:40:34;5.30;;;4.20;;
1509;SDS011;746;48.688;9.428;2023-03-17T10:42:59;4.60;;;4.03;;
1509;SDS011;746;48.688;9.428;2023-03-17T10:45:22;4.63;;;4.23;;
1509;SDS011;746;48.688;9.428;2023-03-17T10:47:47;4.30;;;3.90;;
1509;SDS011;746;48.688;9.428;2023-03-17T10:50:19;4.77;;;4.30;;
1509;SDS011;746;48.688;9.428;2023-03-17T10:52:42;4.40;;;4.10;;
1509;SDS011;746;48.688;9.428;2023-03-17T10:55:06;4.57;;;4.07;;
1509;SDS011;746;48.688;9.428;2023-03-17T10:57:29;5.93;;;4.70;;
1509;SDS011;746;48.688;9.428;2023-03-17T10:59:51;4.77;;;4.37;;
1509;SDS011;746;48.688;9.428;2023-03-17T11:02:16;5.10;;;4.60;;
1509;SDS011;746;48.688;9.428;2023-03-17T11:04:39;5.93;;;4.53;;
1509;SDS011;746;48.688;9.428;2023-03-17T11:07:04;5.13;;;4.63;;
1509;SDS011;746;48.688;9.428;2023-03-17T11:09:26;4.37;;;4.07;;
1509;SDS011;746;48.688;9.428;2023-03-17T11:11:58;4.87;;;4.47;;
1509;SDS011;746;48.688;9.428;2023-03-17T11:14:24;5.00;;;4.50;;
1509;SDS011;746;48.688;9.428;2023-03-17T11:16:47;4.37;;;3.80;;
1509;SDS011;746;48.688;9.428;2023-03-17T11:19:13;5.50;;;4.97;;
1509;SDS011;746;48.688;9.428;2023-03-17T11:21:37;4.47;;;4.13;;
1509;SDS011;746;48.688;9.428;2023-03-17T11:27:29;6.47;;;4.00;;
1509;SDS011;746;48.688;9.428;2023-03-17T11:29:54;5.07;;;4.00;;
1509;SDS011;746;48.688;9.428;2023-03-17T11:32:24;4.93;;;3.20;;
1509;SDS011;746;48.688;9.428;2023-03-17T11:34:50;3.73;;;3.43;;
1509;SDS011;746;48.688;9.428;2023-03-17T11:37:19;5.03;;;3.10;;
1509;SDS011;746;48.688;9.428;2023-03-17T11:39:43;3.50;;;3.20;;
1509;SDS011;746;48.688;9.428;2023-03-17T11:42:07;3.10;;;2.80;;
1509;SDS011;746;48.688;9.428;2023-03-17T11:47:16;3.37;;;3.13;;
1509;SDS011;746;48.688;9.428;2023-03-17T11:49:40;3.63;;;3.33;;
1509;SDS011;746;48.688;9.428;2023-03-17T11:52:04;3.90;;;3.60;;
1509;SDS011;746;48.688;9.428;2023-03-17T11:54:30;4.43;;;3.30;;
1509;SDS011;746;48.688;9.428;2023-03-17T11:56:54;3.67;;;3.27;;
1509;SDS011;746;48.688;9.428;2023-03-17T11:59:22;3.40;;;3.10;;
1509;SDS011;746;48.688;9.428;2023-03-17T12:01:51;2.93;;;2.83;;
1509;SDS011;746;48.688;9.428;2023-03-17T12:04:16;3.30;;;3.10;;
1509;SDS011;746;48.688;9.428;2023-03-17T12:06:41;3.27;;;3.07;;
1509;SDS011;746;48.688;9.428;2023-03-17T12:09:05;2.90;;;2.70;;
1509;SDS011;746;48.688;9.428;2023-03-17T12:11:29;3.07;;;2.87;;
1509;SDS011;746;48.688;9.428;2023-03-17T12:13:53;3.27;;;2.77;;
1509;SDS011;746;48.688;9.428;2023-03-17T12:16:16;3.07;;;2.73;;
1509;SDS011;746;48.688;9.428;2023-03-17T12:18:39;2.80;;;2.60;;
1509;SDS011;746;48.688;9.428;2023-03-17T12:21:05;2.97;;;2.70;;
1509;SDS011;746;48.688;9.428;2023-03-17T12:23:31;2.60;;;2.50;;
1509;SDS011;746;48.688;9.428;2023-03-17T12:25:55;2.77;;;2.43;;
1509;SDS011;746;48.688;9.428;2023-03-17T12:28:18;2.67;;;2.40;;
1509;SDS011;746;48.688;9.428;2023-03-17T12:30:42;2.83;;;2.63;;
1509;SDS011;746;48.688;9.428;2023-03-17T12:33:09;2.97;;;2.67;;
1509;SDS011;746;48.688;9.428;2023-03-17T12:35:32;2.67;;;2.47;;
1509;SDS011;746;48.688;9.428;2023-03-17T12:37:56;2.73;;;2.53;;
1509;SDS011;746;48.688;9.428;2023-03-17T12:40:19;2.40;;;2.30;;
1509;SDS011;746;48.688;9.428;2023-03-17T12:42:45;4.13;;;2.40;;
1509;SDS011;746;48.688;9.428;2023-03-17T12:45:17;2.13;;;1.90;;
1509;SDS011;746;48.688;9.428;2023-03-17T12:50:20;3.37;;;2.13;;
1509;SDS011;746;48.688;9.428;2023-03-17T12:55:29;1.70;;;1.60;;
1509;SDS011;746;48.688;9.428;2023-03-17T12:57:56;1.90;;;1.80;;
1509;SDS011;746;48.688;9.428;2023-03-17T13:00:22;2.07;;;1.80;;
1509;SDS011;746;48.688;9.428;2023-03-17T13:02:45;1.40;;;1.40;;
1509;SDS011;746;48.688;9.428;2023-03-17T13:05:12;1.50;;;1.40;;
1509;SDS011;746;48.688;9.428;2023-03-17T13:07:36;1.60;;;1.50;;
1509;SDS011;746;48.688;9.428;2023-03-17T13:13:03;2.37;;;1.67;;
1509;SDS011;746;48.688;9.428;2023-03-17T13:15:26;1.60;;;1.50;;
1509;SDS011;746;48.688;9.428;2023-03-17T13:17:50;1.50;;;1.33;;
1509;SDS011;746;48.688;9.428;2023-03-17T13:20:13;1.57;;;1.47;;
1509;SDS011;746;48.688;9.428;2023-03-17T13:22:35;1.67;;;1.57;;
1509;SDS011;746;48.688;9.428;2023-03-17T13:24:58;1.20;;;1.13;;
1509;SDS011;746;48.688;9.428;2023-03-17T13:27:41;1.57;;;1.30;;
1509;SDS011;746;48.688;9.428;2023-03-17T13:32:55;1.30;;;1.30;;
1509;SDS011;746;48.688;9.428;2023-03-17T13:35:19;1.47;;;1.37;;
1509;SDS011;746;48.688;9.428;2023-03-17T13:37:43;1.80;;;1.17;;
1509;SDS011;746;48.688;9.428;2023-03-17T13:40:11;1.33;;;1.33;;
1509;SDS011;746;48.688;9.428;2023-03-17T13:42:39;1.40;;;1.40;;
1509;SDS011;746;48.688;9.428;2023-03-17T13:45:14;1.30;;;1.30;;
1509;SDS011;746;48.688;9.428;2023-03-17T13:47:36;1.10;;;1.10;;
1509;SDS011;746;48.688;9.428;2023-03-17T13:50:01;1.37;;;1.27;;
1509;SDS011;746;48.688;9.428;2023-03-17T13:52:25;1.47;;;1.40;;
1509;SDS011;746;48.688;9.428;2023-03-17T13:54:48;1.47;;;1.37;;
1509;SDS011;746;48.688;9.428;2023-03-17T13:57:26;1.80;;;1.70;;
1509;SDS011;746;48.688;9.428;2023-03-17T13:59:52;2.00;;;1.90;;
1509;SDS011;746;48.688;9.428;2023-03-17T14:02:15;2.27;;;2.03;;
1509;SDS011;746;48.688;9.428;2023-03-17T14:04:38;2.10;;;2.00;;
1509;SDS011;746;48.688;9.428;2023-03-17T14:07:05;2.07;;;1.97;;
1509;SDS011;746;48.688;9.428;2023-03-17T14:09:33;2.03;;;1.93;;
1509;SDS011;746;48.688;9.428;2023-03-17T14:11:55;2.10;;;2.00;;
1509;SDS011;746;48.688;9.428;2023-03-17T14:14:20;1.90;;;1.80;;
1509;SDS011;746;48.688;9.428;2023-03-17T14:16:53;2.90;;;2.00;;
1509;SDS011;746;48.688;9.428;2023-03-17T14:19:17;2.00;;;1.80;;
1509;SDS011;746;48.688;9.428;2023-03-17T14:21:40;2.43;;;1.90;;
1509;SDS011;746;48.688;9.428;2023-03-17T14:24:16;3.00;;;2.10;;
1509;SDS011;746;48.688;9.428;2023-03-17T14:26:37;2.40;;;2.00;;
1509;SDS011;746;48.688;9.428;2023-03-17T14:28:59;5.37;;;2.30;;
1509;SDS011;746;48.688;9.428;2023-03-17T14:31:21;2.30;;;2.10;;
1509;SDS011;746;48.688;9.428;2023-03-17T14:33:42;2.87;;;2.27;;
1509;SDS011;746;48.688;9.428;2023-03-17T14:36:05;2.80;;;2.20;;
1509;SDS011;746;48.688;9.428;2023-03-17T14:38:27;2.37;;;2.10;;
1509;SDS011;746;48.688;9.428;2023-03-17T14:40:50;4.13;;;2.47;;
1509;SDS011;746;48.688;9.428;2023-03-17T14:43:19;3.20;;;2.53;;
1509;SDS011;746;48.688;9.428;2023-03-17T14:45:43;2.60;;;2.40;;
1509;SDS011;746;48.688;9.428;2023-03-17T14:48:07;2.63;;;2.43;;
1509;SDS011;746;48.688;9.428;2023-03-17T14:50:29;2.30;;;2.10;;
1509;SDS011;746;48.688;9.428;2023-03-17T14:52:51;2.00;;;1.90;;
1509;SDS011;746;48.688;9.428;2023-03-17T14:55:13;2.00;;;1.90;;
1509;SDS011;746;48.688;9.428;2023-03-17T14:57:37;3.20;;;2.50;;
1509;SDS011;746;48.688;9.428;2023-03-17T14:59:59;2.50;;;2.30;;
1509;SDS011;746;48.688;9.428;2023-03-17T15:02:21;2.73;;;2.50;;
1509;SDS011;746;48.688;9.428;2023-03-17T15:04:48;3.13;;;2.80;;
1509;SDS011;746;48.688;9.428;2023-03-17T15:07:26;3.07;;;2.60;;
1509;SDS011;746;48.688;9.428;2023-03-17T15:09:56;3.27;;;2.60;;
1509;SDS011;746;48.688;9.428;2023-03-17T15:12:21;3.60;;;3.40;;
1509;SDS011;746;48.688;9.428;2023-03-17T15:14:44;3.80;;;3.40;;
1509;SDS011;746;48.688;9.428;2023-03-17T15:17:13;6.03;;;3.80;;
1509;SDS011;746;48.688;9.428;2023-03-17T15:19:36;3.63;;;3.43;;
1509;SDS011;746;48.688;9.428;2023-03-17T15:22:03;4.37;;;3.40;;